Hebron, Kentucky
Current Conditions -  °F | °C
As of 7:26 AM on Saturday 20 Dec 2014 (Local Time) from KCVG Reporting Station
Light Snow Light Snow  
Wind Chill: 30°   Ceiling: 1900
Heat Index: 30°   Visibility: 2mi
Dew Point: 21°   Wind: 0mph
Humidity: 69%   Direction: NA
Pressure: 30.27"   Gusts: NA
Location:  39.07°N, 84.7°W
Report Text: KCVG 201226Z 00000KT 2SM -SN OVC019 M01/M06 A3027 RMK AO2 TWR VIS 3 SNB11 P0000
Loading
Personal Weather Stations






























Interactive Weather Map New forecast layout! Learn more

10-Day Weather Forecast

Advertisements
Track Severe Weather on mobile